Time;durP1;ratioP1;P1;durP2;ratioP2;P2;SDS_P1;SDS_P2;PMS_P1;PMS_P2;Temp;Humidity;BMP_temperature;BMP_pressure;BME280_temperature;BME280_humidity;BME280_pressure;Samples;Min_cycle;Max_cycle;Signal;HPM_P1;HPM_P2
2023/06/12 00:03:37;;;;;;;11.98;6.45;;;;;;;;;;10442729;28;20120;-84
2023/06/12 00:08:41;;;;;;;9.63;6.78;;;;;;;;;;10410006;28;20037;-84
2023/06/12 00:13:44;;;;;;;9.43;6.68;;;;;;;;;;10438931;28;20483;-83
2023/06/12 00:18:46;;;;;;;10.07;7.32;;;;;;;;;;10439944;28;20025;-82
2023/06/12 00:23:47;;;;;;;11.68;7.65;;;;;;;;;;10425561;28;20037;-85
2023/06/12 00:28:48;;;;;;;11.38;7.53;;;;;;;;;;10427995;28;20070;-84
2023/06/12 00:33:50;;;;;;;10.90;7.35;;;;;;;;;;10434953;28;20029;-83
2023/06/12 00:38:52;;;;;;;13.80;7.45;;;;;;;;;;10424986;28;20021;-84
2023/06/12 00:43:53;;;;;;;12.68;7.90;;;;;;;;;;10426992;28;20426;-86
2023/06/12 00:48:55;;;;;;;11.25;8.15;;;;;;;;;;10443528;28;20037;-86
2023/06/12 00:53:57;;;;;;;12.60;8.30;;;;;;;;;;10440204;28;20480;-83
2023/06/12 00:58:58;;;;;;;11.52;8.20;;;;;;;;;;10445601;28;20016;-83
2023/06/12 01:04:00;;;;;;;11.68;8.75;;;;;;;;;;10442410;28;20095;-84
2023/06/12 01:09:18;;;;;;;13.82;8.50;;;;;;;;;;10432913;28;20059;-83
2023/06/12 01:14:19;;;;;;;12.82;8.65;;;;;;;;;;10445101;28;20041;-83
2023/06/12 01:19:20;;;;;;;12.45;8.95;;;;;;;;;;10441929;28;20433;-85
2023/06/12 01:24:47;;;;;;;14.48;8.55;;;;;;;;;;10431581;28;20033;-84
2023/06/12 01:30:07;;;;;;;13.50;9.25;;;;;;;;;;10432926;28;20484;-85
2023/06/12 01:35:11;;;;;;;16.73;9.38;;;;;;;;;;10443586;28;20207;-82
2023/06/12 01:40:13;;;;;;;16.90;9.32;;;;;;;;;;10421205;28;20128;-84
2023/06/12 01:45:14;;;;;;;14.13;9.32;;;;;;;;;;10443236;28;20028;-84
2023/06/12 01:50:16;;;;;;;15.90;10.32;;;;;;;;;;10429009;28;20112;-85
2023/06/12 01:55:19;;;;;;;15.18;9.50;;;;;;;;;;10438329;28;20025;-84
2023/06/12 02:00:20;;;;;;;15.23;9.35;;;;;;;;;;10436234;28;20029;-83
2023/06/12 02:05:21;;;;;;;13.32;9.63;;;;;;;;;;10443029;28;20495;-83
2023/06/12 02:10:22;;;;;;;13.32;9.85;;;;;;;;;;10429944;28;20070;-84
2023/06/12 02:15:23;;;;;;;13.70;10.15;;;;;;;;;;10428172;28;20087;-84
2023/06/12 02:20:24;;;;;;;21.75;10.43;;;;;;;;;;10448853;28;20465;-85
2023/06/12 02:25:25;;;;;;;16.17;9.93;;;;;;;;;;10450236;28;20091;-83
2023/06/12 02:30:26;;;;;;;15.40;9.98;;;;;;;;;;10448458;28;20027;-83
2023/06/12 02:35:27;;;;;;;15.68;10.25;;;;;;;;;;10450064;28;20041;-83
2023/06/12 02:40:28;;;;;;;14.55;9.70;;;;;;;;;;10419573;28;20124;-85
2023/06/12 02:45:29;;;;;;;15.32;9.80;;;;;;;;;;10443758;28;20030;-84
2023/06/12 02:50:30;;;;;;;16.30;10.63;;;;;;;;;;10431192;28;20476;-83
2023/06/12 02:55:31;;;;;;;14.93;10.43;;;;;;;;;;10449769;28;20027;-85
2023/06/12 03:00:32;;;;;;;16.63;10.07;;;;;;;;;;10443683;28;20017;-84
2023/06/12 03:05:34;;;;;;;18.05;10.38;;;;;;;;;;10409099;28;20491;-83
2023/06/12 03:10:35;;;;;;;16.90;10.88;;;;;;;;;;10428537;28;20045;-84
2023/06/12 03:15:36;;;;;;;20.25;11.70;;;;;;;;;;10435653;28;20041;-83
2023/06/12 03:20:37;;;;;;;16.55;11.85;;;;;;;;;;10436808;28;20072;-83
2023/06/12 03:25:38;;;;;;;15.75;10.68;;;;;;;;;;10412263;28;20051;-85
2023/06/12 03:30:39;;;;;;;16.90;10.77;;;;;;;;;;10440201;28;20035;-85
2023/06/12 03:35:40;;;;;;;19.10;11.48;;;;;;;;;;10447779;28;20025;-85
2023/06/12 03:40:41;;;;;;;16.55;11.23;;;;;;;;;;10445601;28;20033;-84
2023/06/12 03:45:42;;;;;;;17.88;11.73;;;;;;;;;;10445483;28;20498;-85
2023/06/12 03:50:43;;;;;;;18.23;11.65;;;;;;;;;;10443979;28;20048;-85
2023/06/12 03:55:45;;;;;;;17.00;11.38;;;;;;;;;;10428571;28;20032;-85
2023/06/12 04:00:47;;;;;;;16.20;11.43;;;;;;;;;;10430909;28;20025;-82
2023/06/12 04:05:49;;;;;;;14.93;9.95;;;;;;;;;;10437558;28;20040;-83
2023/06/12 04:10:52;;;;;;;17.88;10.95;;;;;;;;;;10437125;28;20099;-83
2023/06/12 04:15:55;;;;;;;14.55;10.07;;;;;;;;;;10443852;28;20543;-82
2023/06/12 04:20:57;;;;;;;14.00;8.75;;;;;;;;;;10433202;28;20028;-86
2023/06/12 04:26:04;;;;;;;14.65;8.35;;;;;;;;;;10426396;28;20090;-86
2023/06/12 04:31:05;;;;;;;12.40;8.40;;;;;;;;;;10420980;28;20025;-84
2023/06/12 04:36:07;;;;;;;13.02;7.82;;;;;;;;;;10442490;28;20035;-84
2023/06/12 04:41:11;;;;;;;8.85;6.97;;;;;;;;;;10443986;28;20036;-84
2023/06/12 04:46:13;;;;;;;11.25;6.78;;;;;;;;;;10444471;28;20032;-84
2023/06/12 04:51:14;;;;;;;10.27;6.25;;;;;;;;;;10446848;28;20021;-84
2023/06/12 04:56:20;;;;;;;10.23;6.50;;;;;;;;;;10445211;28;20033;-84
2023/06/12 05:01:23;;;;;;;;;;;;;;;;;;10445775;28;20539;-84
2023/06/12 05:06:26;;;;;;;9.68;5.65;;;;;;;;;;10426954;28;19999;-84
2023/06/12 05:11:27;;;;;;;7.60;4.95;;;;;;;;;;10426867;28;20056;-84
2023/06/12 05:16:28;;;;;;;8.73;4.40;;;;;;;;;;10445016;28;20029;-86
2023/06/12 05:21:29;;;;;;;6.65;4.18;;;;;;;;;;10444406;28;20025;-83
2023/06/12 05:26:30;;;;;;;5.65;4.07;;;;;;;;;;10450417;28;20037;-84
2023/06/12 05:31:31;;;;;;;5.80;3.90;;;;;;;;;;10415321;28;20029;-84
2023/06/12 05:36:33;;;;;;;6.97;3.95;;;;;;;;;;10450391;28;20486;-84
2023/06/12 05:41:34;;;;;;;5.88;3.80;;;;;;;;;;10451955;28;20016;-84
2023/06/12 05:46:35;;;;;;;7.05;3.45;;;;;;;;;;10452284;28;20036;-83
2023/06/12 05:51:36;;;;;;;5.75;3.70;;;;;;;;;;10434432;28;20036;-88
2023/06/12 05:56:37;;;;;;;4.93;3.45;;;;;;;;;;10451516;28;20017;-84
2023/06/12 06:01:38;;;;;;;7.13;3.50;;;;;;;;;;10451930;28;20709;-86
2023/06/12 06:06:39;;;;;;;3.75;2.90;;;;;;;;;;10433148;28;20037;-84
2023/06/12 06:11:40;;;;;;;6.78;2.88;;;;;;;;;;10450966;28;20057;-85
2023/06/12 06:16:41;;;;;;;5.75;3.10;;;;;;;;;;10433283;28;20376;-84
2023/06/12 06:21:42;;;;;;;10.70;3.75;;;;;;;;;;10432004;28;20052;-85
2023/06/12 06:26:43;;;;;;;4.15;3.13;;;;;;;;;;10450031;28;20032;-84
2023/06/12 06:31:44;;;;;;;9.45;3.35;;;;;;;;;;10450486;28;20029;-84
2023/06/12 06:36:46;;;;;;;5.43;3.95;;;;;;;;;;10449002;28;20021;-87
2023/06/12 06:41:47;;;;;;;5.25;3.30;;;;;;;;;;10449698;28;20655;-87
2023/06/12 06:46:49;;;;;;;6.40;3.22;;;;;;;;;;10449531;28;20032;-84
2023/06/12 06:51:50;;;;;;;6.35;3.47;;;;;;;;;;10449758;28;20452;-84
2023/06/12 06:56:51;;;;;;;3.75;2.95;;;;;;;;;;10449502;28;20415;-84
2023/06/12 07:01:52;;;;;;;4.72;2.80;;;;;;;;;;10449356;28;20039;-85
2023/06/12 07:06:53;;;;;;;4.95;3.05;;;;;;;;;;10448815;28;20079;-84
2023/06/12 07:11:54;;;;;;;5.20;2.95;;;;;;;;;;10436193;28;20106;-84
2023/06/12 07:16:55;;;;;;;4.80;2.65;;;;;;;;;;10449785;28;20406;-85
2023/06/12 07:21:56;;;;;;;4.85;3.00;;;;;;;;;;10429962;28;20025;-85
2023/06/12 07:26:57;;;;;;;5.57;3.20;;;;;;;;;;10448477;28;20476;-85
2023/06/12 07:31:58;;;;;;;4.40;2.58;;;;;;;;;;10429838;28;20040;-84
2023/06/12 07:37:00;;;;;;;5.05;2.85;;;;;;;;;;10430224;28;20033;-85
2023/06/12 07:42:01;;;;;;;7.10;3.13;;;;;;;;;;10448093;28;20464;-86
2023/06/12 07:47:02;;;;;;;4.35;2.63;;;;;;;;;;10429528;28;20036;-85
2023/06/12 07:52:04;;;;;;;4.47;2.83;;;;;;;;;;10447009;28;20017;-85
2023/06/12 07:57:06;;;;;;;3.92;3.05;;;;;;;;;;10446865;28;20047;-85
2023/06/12 08:02:07;;;;;;;5.15;3.00;;;;;;;;;;10447566;28;20021;-84
2023/06/12 08:07:15;;;;;;;7.72;3.10;;;;;;;;;;10420103;28;20037;-84
2023/06/12 08:12:16;;;;;;;4.70;2.85;;;;;;;;;;10431727;28;20045;-85
2023/06/12 08:17:18;;;;;;;6.30;2.50;;;;;;;;;;10434667;28;20013;-85
2023/06/12 08:22:19;;;;;;;5.03;2.90;;;;;;;;;;10432796;28;20464;-84
2023/06/12 08:27:20;;;;;;;4.55;3.05;;;;;;;;;;10445515;28;20028;-86
2023/06/12 08:32:22;;;;;;;6.82;2.90;;;;;;;;;;10445950;28;20086;-84
2023/06/12 08:37:23;;;;;;;4.32;3.47;;;;;;;;;;10444589;28;20021;-84
2023/06/12 08:42:24;;;;;;;5.13;2.75;;;;;;;;;;10443562;28;20082;-84
2023/06/12 08:47:25;;;;;;;2.65;2.42;;;;;;;;;;10444269;28;20098;-84
2023/06/12 08:52:27;;;;;;;5.63;2.38;;;;;;;;;;10432716;28;20029;-84
2023/06/12 08:57:28;;;;;;;3.53;2.42;;;;;;;;;;10425722;28;20523;-87
2023/06/12 09:02:29;;;;;;;3.88;2.63;;;;;;;;;;10433164;28;20508;-84
2023/06/12 09:07:33;;;;;;;2.92;1.90;;;;;;;;;;10400576;28;20063;-87
2023/06/12 09:12:34;;;;;;;3.67;2.40;;;;;;;;;;10393626;28;20085;-84
2023/06/12 09:17:37;;;;;;;2.72;2.30;;;;;;;;;;10419331;28;20022;-84
2023/06/12 09:22:39;;;;;;;4.20;2.38;;;;;;;;;;10443238;28;20040;-86
2023/06/12 09:27:43;;;;;;;5.53;2.30;;;;;;;;;;10436903;28;20783;-84
2023/06/12 09:32:44;;;;;;;4.63;2.00;;;;;;;;;;10421815;28;20021;-84
2023/06/12 09:37:45;;;;;;;5.97;2.22;;;;;;;;;;10435193;28;20056;-84
2023/06/12 09:42:46;;;;;;;3.55;2.03;;;;;;;;;;10443631;28;20028;-83
2023/06/12 09:47:48;;;;;;;4.22;2.53;;;;;;;;;;10440260;28;20040;-83
2023/06/12 09:52:50;;;;;;;2.63;2.03;;;;;;;;;;10438145;28;20053;-84
2023/06/12 09:57:52;;;;;;;4.18;2.25;;;;;;;;;;10415918;28;20029;-84
2023/06/12 10:03:02;;;;;;;4.50;2.40;;;;;;;;;;10436307;28;20021;-83
2023/06/12 10:08:06;;;;;;;3.58;2.08;;;;;;;;;;10399620;28;20034;-85
2023/06/12 10:13:07;;;;;;;6.40;2.70;;;;;;;;;;10429659;28;20056;-84
2023/06/12 10:18:10;;;;;;;3.85;2.45;;;;;;;;;;10415392;28;20419;-84
2023/06/12 10:23:11;;;;;;;8.02;2.53;;;;;;;;;;10435686;28;20032;-83
2023/06/12 10:28:12;;;;;;;4.70;2.58;;;;;;;;;;10427191;28;20091;-84
2023/06/12 10:33:14;;;;;;;4.72;2.20;;;;;;;;;;10438630;28;20029;-84
2023/06/12 10:55:56;;;;;;;3.92;2.17;;;;;;;;;;10407747;28;20029;-83
2023/06/12 11:06:36;;;;;;;6.95;2.53;;;;;;;;;;10400233;28;20404;-85
2023/06/12 11:11:41;;;;;;;4.35;2.25;;;;;;;;;;10407028;28;20029;-85
2023/06/12 11:16:45;;;;;;;3.72;2.00;;;;;;;;;;10377979;28;20109;-83
2023/06/12 11:22:10;;;;;;;4.95;2.35;;;;;;;;;;10368186;28;20361;-84
2023/06/12 11:27:11;;;;;;;6.93;2.63;;;;;;;;;;10383846;28;20053;-83
2023/06/12 11:32:12;;;;;;;3.90;1.55;;;;;;;;;;10407610;28;20029;-84
2023/06/12 11:37:17;;;;;;;6.80;1.80;;;;;;;;;;10368896;28;20107;-85
2023/06/12 11:42:19;;;;;;;2.55;1.85;;;;;;;;;;10393845;28;20014;-84
2023/06/12 11:47:20;;;;;;;4.03;2.13;;;;;;;;;;10381194;28;20656;-84
2023/06/12 11:52:21;;;;;;;2.22;1.80;;;;;;;;;;10401555;28;20100;-84
2023/06/12 12:02:52;;;;;;;3.80;2.10;;;;;;;;;;10397697;28;20128;-83
2023/06/12 12:07:57;;;;;;;5.07;2.20;;;;;;;;;;10394721;28;20083;-85
2023/06/12 12:12:59;;;;;;;;;;;;;;;;;;10404793;28;20361;-84
2023/06/12 12:18:00;;;;;;;3.00;1.90;;;;;;;;;;10399458;28;19967;-83
2023/06/12 12:23:03;;;;;;;5.75;1.83;;;;;;;;;;10397232;28;20380;-84
2023/06/12 12:28:04;;;;;;;4.43;2.53;;;;;;;;;;10380613;28;20076;-84
2023/06/12 12:33:05;;;;;;;8.10;5.50;;;;;;;;;;10385687;28;20025;-86
2023/06/12 12:38:08;;;;;;;5.47;2.13;;;;;;;;;;10401071;28;20412;-83
2023/06/12 12:43:09;;;;;;;7.57;2.20;;;;;;;;;;10403439;28;20025;-83
2023/06/12 12:48:11;;;;;;;5.63;2.00;;;;;;;;;;10400835;28;20565;-83
2023/06/12 12:53:12;;;;;;;3.88;1.90;;;;;;;;;;10400031;28;20050;-84
2023/06/12 12:58:13;;;;;;;4.75;2.10;;;;;;;;;;10398985;28;20033;-83
2023/06/12 13:03:14;;;;;;;4.85;2.70;;;;;;;;;;10400074;28;20033;-85
2023/06/12 13:08:16;;;;;;;4.00;2.33;;;;;;;;;;10398674;28;20037;-84
2023/06/12 13:13:20;;;;;;;5.70;2.25;;;;;;;;;;10397682;28;20067;-86
2023/06/12 13:18:21;;;;;;;3.95;2.20;;;;;;;;;;10371789;28;20038;-82
2023/06/12 13:23:23;;;;;;;3.63;1.80;;;;;;;;;;10400470;28;20369;-83
2023/06/12 13:28:24;;;;;;;3.22;1.90;;;;;;;;;;10389447;28;20034;-83
2023/06/12 13:33:25;;;;;;;4.40;2.33;;;;;;;;;;10399310;28;20061;-84
2023/06/12 13:38:26;;;;;;;4.25;2.17;;;;;;;;;;10398163;28;20024;-86
2023/06/12 13:43:27;;;;;;;4.57;2.20;;;;;;;;;;10381980;28;20038;-83
2023/06/12 13:48:28;;;;;;;4.32;2.22;;;;;;;;;;10403769;28;20408;-85
2023/06/12 13:53:29;;;;;;;7.65;2.90;;;;;;;;;;10408390;28;20045;-83
2023/06/12 13:58:31;;;;;;;4.15;2.47;;;;;;;;;;10401835;28;20022;-83
2023/06/12 14:03:32;;;;;;;2.60;2.05;;;;;;;;;;10402987;28;20125;-83
2023/06/12 14:08:40;;;;;;;3.13;2.20;;;;;;;;;;10403189;28;20058;-84
2023/06/12 14:13:41;;;;;;;4.35;2.92;;;;;;;;;;10405950;28;20063;-83
2023/06/12 14:18:42;;;;;;;3.72;2.10;;;;;;;;;;10382870;28;20022;-84
2023/06/12 14:29:22;;;;;;;6.93;2.10;;;;;;;;;;10406621;28;20029;-83
2023/06/12 14:34:23;;;;;;;4.10;1.98;;;;;;;;;;10407388;28;20061;-85
2023/06/12 14:39:24;;;;;;;2.28;2.08;;;;;;;;;;10402094;28;20029;-85
2023/06/12 14:44:25;;;;;;;4.53;2.08;;;;;;;;;;10387163;28;20362;-85
2023/06/12 14:49:26;;;;;;;5.57;2.25;;;;;;;;;;10381551;28;20054;-83
2023/06/12 14:54:27;;;;;;;3.38;2.00;;;;;;;;;;10360903;28;20079;-81
2023/06/12 14:59:29;;;;;;;3.70;2.17;;;;;;;;;;10358769;28;20045;-84
2023/06/12 15:04:30;;;;;;;4.70;2.40;;;;;;;;;;10360518;28;20033;-82
2023/06/12 15:09:31;;;;;;;2.33;1.83;;;;;;;;;;10361032;28;20036;-83
2023/06/12 15:14:32;;;;;;;5.82;2.35;;;;;;;;;;10357583;28;20482;-83
2023/06/12 15:19:33;;;;;;;5.65;1.77;;;;;;;;;;10360453;28;20030;-83
2023/06/12 15:24:34;;;;;;;3.10;2.05;;;;;;;;;;10343432;28;20033;-83
2023/06/12 15:29:35;;;;;;;5.47;2.47;;;;;;;;;;10347167;28;20043;-85
2023/06/12 15:34:36;;;;;;;4.97;2.42;;;;;;;;;;10350051;28;20033;-82
2023/06/12 15:39:37;;;;;;;3.80;2.30;;;;;;;;;;10374926;28;20044;-83
2023/06/12 15:44:38;;;;;;;3.40;2.47;;;;;;;;;;10355486;28;20030;-83
2023/06/12 15:49:39;;;;;;;9.50;2.40;;;;;;;;;;10365950;28;20046;-82
2023/06/12 15:54:40;;;;;;;5.07;2.40;;;;;;;;;;10404254;28;20036;-82
2023/06/12 15:59:42;;;;;;;6.55;2.53;;;;;;;;;;10400513;28;20024;-83
2023/06/12 16:05:20;;;;;;;5.78;2.35;;;;;;;;;;10387126;28;20071;-85
2023/06/12 16:10:21;;;;;;;4.72;1.90;;;;;;;;;;10374836;28;20030;-84
2023/06/12 16:15:22;;;;;;;4.20;2.50;;;;;;;;;;10404834;28;20020;-84
2023/06/12 16:20:29;;;;;;;3.47;2.03;;;;;;;;;;10385003;28;20039;-85
2023/06/12 16:25:31;;;;;;;7.65;2.67;;;;;;;;;;10383524;28;21173;-86
2023/06/12 16:30:32;;;;;;;2.80;1.85;;;;;;;;;;10404540;28;20025;-84
2023/06/12 16:35:33;;;;;;;4.65;2.20;;;;;;;;;;10404183;28;20100;-85
2023/06/12 16:40:35;;;;;;;4.32;2.17;;;;;;;;;;10385894;28;20029;-85
2023/06/12 16:45:37;;;;;;;3.50;2.30;;;;;;;;;;10403876;28;20110;-84
2023/06/12 16:50:39;;;;;;;3.13;2.22;;;;;;;;;;10385290;28;20098;-85
2023/06/12 16:55:40;;;;;;;2.45;2.00;;;;;;;;;;10390796;28;20025;-86
2023/06/12 17:00:41;;;;;;;2.60;2.03;;;;;;;;;;10400502;28;20040;-86
2023/06/12 17:05:42;;;;;;;5.93;2.20;;;;;;;;;;10382872;28;20638;-86
2023/06/12 17:10:44;;;;;;;3.47;2.10;;;;;;;;;;10384915;28;20066;-85
2023/06/12 17:15:45;;;;;;;4.43;2.15;;;;;;;;;;10381155;28;20475;-86
2023/06/12 17:20:46;;;;;;;2.63;1.80;;;;;;;;;;10371078;28;20099;-86
2023/06/12 17:25:47;;;;;;;4.55;2.25;;;;;;;;;;10404780;28;20033;-84
2023/06/12 17:30:48;;;;;;;3.95;2.20;;;;;;;;;;10395028;28;20389;-85
2023/06/12 17:35:49;;;;;;;5.57;2.25;;;;;;;;;;10389532;28;20025;-88
2023/06/12 17:40:56;;;;;;;3.65;2.40;;;;;;;;;;10388456;28;20124;-86
2023/06/12 17:45:57;;;;;;;4.90;2.50;;;;;;;;;;10380854;28;20417;-83
2023/06/12 17:50:58;;;;;;;2.92;2.08;;;;;;;;;;10379869;28;20111;-84
2023/06/12 17:55:59;;;;;;;2.45;1.95;;;;;;;;;;10378488;28;20091;-85
2023/06/12 18:01:00;;;;;;;2.97;2.35;;;;;;;;;;10413079;28;20488;-83
2023/06/12 18:06:01;;;;;;;5.68;2.50;;;;;;;;;;10409746;28;20052;-84
2023/06/12 18:11:03;;;;;;;4.25;1.98;;;;;;;;;;10410069;28;20025;-84
2023/06/12 18:16:04;;;;;;;5.07;2.05;;;;;;;;;;10367044;28;20483;-84
2023/06/12 18:21:05;;;;;;;3.30;2.20;;;;;;;;;;10391246;28;20053;-85
2023/06/12 18:26:07;;;;;;;6.30;2.40;;;;;;;;;;10392065;28;20029;-87
2023/06/12 18:31:08;;;;;;;4.07;2.28;;;;;;;;;;10390305;28;20037;-85
2023/06/12 18:36:09;;;;;;;5.20;2.53;;;;;;;;;;10391198;28;20033;-85
2023/06/12 18:41:10;;;;;;;4.25;2.42;;;;;;;;;;10398789;28;20033;-87
2023/06/12 18:46:11;;;;;;;4.13;2.38;;;;;;;;;;10388630;28;20389;-85
2023/06/12 18:51:12;;;;;;;3.45;2.42;;;;;;;;;;10397042;28;20044;-86
2023/06/12 18:56:16;;;;;;;5.70;2.80;;;;;;;;;;10415907;28;20030;-86
2023/06/12 19:01:17;;;;;;;3.63;2.45;;;;;;;;;;10389749;28;20518;-87
2023/06/12 19:06:18;;;;;;;6.15;3.30;;;;;;;;;;10379909;28;20087;-86
2023/06/12 19:11:19;;;;;;;7.53;4.07;;;;;;;;;;10388657;28;20030;-85
2023/06/12 19:16:21;;;;;;;7.38;3.65;;;;;;;;;;10403063;28;20026;-86
2023/06/12 19:21:22;;;;;;;9.30;4.68;;;;;;;;;;10375386;28;20052;-86
2023/06/12 19:26:29;;;;;;;10.18;4.50;;;;;;;;;;10379641;28;20041;-85
2023/06/12 19:31:30;;;;;;;8.15;4.03;;;;;;;;;;10373623;28;20029;-87
2023/06/12 19:36:31;;;;;;;7.88;3.78;;;;;;;;;;10385879;28;20020;-90
2023/06/12 19:41:32;;;;;;;11.27;4.57;;;;;;;;;;10367336;28;20017;-87
2023/06/12 19:46:33;;;;;;;9.18;4.60;;;;;;;;;;10398190;28;20026;-86
2023/06/12 19:51:35;;;;;;;7.18;4.43;;;;;;;;;;10392983;28;20065;-85
2023/06/12 19:56:36;;;;;;;5.32;3.50;;;;;;;;;;10404826;28;20040;-85
2023/06/12 20:01:37;;;;;;;9.57;3.97;;;;;;;;;;10387658;28;20022;-86
2023/06/12 20:06:38;;;;;;;4.90;3.55;;;;;;;;;;10386634;28;20041;-86
2023/06/12 20:11:39;;;;;;;7.97;3.85;;;;;;;;;;10402229;28;20017;-87
2023/06/12 20:16:41;;;;;;;5.07;3.60;;;;;;;;;;10376291;28;20040;-86
2023/06/12 20:21:42;;;;;;;9.95;4.50;;;;;;;;;;10384802;28;20069;-85
2023/06/12 20:26:46;;;;;;;6.28;4.00;;;;;;;;;;10379485;28;20033;-86
2023/06/12 20:31:47;;;;;;;7.30;4.18;;;;;;;;;;10379458;28;20033;-86
2023/06/12 20:36:51;;;;;;;9.38;4.32;;;;;;;;;;10379903;28;20026;-86
2023/06/12 20:42:07;;;;;;;9.05;4.80;;;;;;;;;;10382024;28;20052;-85
2023/06/12 20:47:18;;;;;;;8.02;4.13;;;;;;;;;;10383283;28;20119;-85
2023/06/12 20:57:39;;;;;;;10.05;4.53;;;;;;;;;;10347542;28;20104;-85
2023/06/12 21:02:40;;;;;;;7.47;4.05;;;;;;;;;;10353036;28;20468;-85
2023/06/12 21:07:41;;;;;;;7.45;4.25;;;;;;;;;;10356223;28;20037;-85
2023/06/12 21:12:42;;;;;;;9.20;4.88;;;;;;;;;;10342523;28;20496;-85
2023/06/12 21:17:43;;;;;;;9.65;4.68;;;;;;;;;;10325037;28;20032;-86
2023/06/12 21:22:45;;;;;;;10.02;5.93;;;;;;;;;;10322654;28;20591;-85
2023/06/12 21:27:46;;;;;;;10.40;4.63;;;;;;;;;;10321898;28;20376;-86
2023/06/12 21:32:48;;;;;;;9.75;5.63;;;;;;;;;;10327248;28;20019;-86
2023/06/12 21:37:49;;;;;;;10.57;6.00;;;;;;;;;;10322509;28;20032;-86
2023/06/12 21:42:50;;;;;;;9.52;5.65;;;;;;;;;;10357786;28;20355;-85
2023/06/12 21:47:51;;;;;;;11.60;4.45;;;;;;;;;;10362280;28;20048;-85
2023/06/12 21:52:52;;;;;;;9.23;4.90;;;;;;;;;;10385119;28;20061;-86
2023/06/12 21:57:53;;;;;;;6.85;4.30;;;;;;;;;;10403546;28;20022;-87
2023/06/12 22:02:55;;;;;;;7.53;4.35;;;;;;;;;;10384289;28;20425;-84
2023/06/12 22:07:56;;;;;;;8.85;4.70;;;;;;;;;;10391442;28;20087;-85
2023/06/12 22:12:57;;;;;;;8.68;4.68;;;;;;;;;;10410571;28;20026;-86
2023/06/12 22:17:58;;;;;;;9.00;4.97;;;;;;;;;;10391478;28;20029;-86
2023/06/12 22:23:00;;;;;;;10.90;5.18;;;;;;;;;;10391969;28;20055;-85
2023/06/12 22:28:01;;;;;;;9.18;4.63;;;;;;;;;;10409200;28;20037;-85
2023/06/12 22:33:02;;;;;;;12.63;4.75;;;;;;;;;;10408259;28;20034;-85
2023/06/12 22:38:03;;;;;;;8.27;4.28;;;;;;;;;;10405035;28;20357;-86
2023/06/12 22:43:04;;;;;;;9.90;5.22;;;;;;;;;;10409431;28;20021;-85
2023/06/12 22:48:08;;;;;;;10.63;5.78;;;;;;;;;;10408041;28;20484;-85
2023/06/12 22:53:11;;;;;;;14.63;6.22;;;;;;;;;;10408883;28;20052;-85
2023/06/12 22:58:12;;;;;;;11.20;5.88;;;;;;;;;;10408229;28;20025;-85
2023/06/12 23:03:13;;;;;;;10.63;5.82;;;;;;;;;;10408356;28;20106;-86
2023/06/12 23:08:15;;;;;;;13.77;6.38;;;;;;;;;;10408636;28;20092;-86
2023/06/12 23:13:16;;;;;;;13.00;5.93;;;;;;;;;;10390052;28;20052;-86
2023/06/12 23:18:17;;;;;;;9.35;5.38;;;;;;;;;;10406082;28;20036;-85
2023/06/12 23:23:21;;;;;;;10.30;5.22;;;;;;;;;;10407664;28;20087;-84
2023/06/12 23:28:22;;;;;;;12.43;5.28;;;;;;;;;;10388598;28;20372;-86
2023/06/12 23:33:24;;;;;;;6.65;4.50;;;;;;;;;;10389191;28;20044;-85
2023/06/12 23:38:25;;;;;;;9.05;5.05;;;;;;;;;;10406591;28;20433;-86
2023/06/12 23:43:27;;;;;;;10.65;5.68;;;;;;;;;;10389394;28;20033;-85
2023/06/12 23:48:28;;;;;;;10.77;6.18;;;;;;;;;;10405511;28;20065;-86
2023/06/12 23:53:29;;;;;;;16.10;6.47;;;;;;;;;;10407798;28;20045;-85
2023/06/12 23:58:33;;;;;;;8.75;4.93;;;;;;;;;;10405753;28;20025;-85
